createdAt,value
2018-10-01T00:01:52.582Z,9.35
2018-10-01T00:06:56.426Z,8.47
2018-10-01T00:12:00.514Z,8.53
2018-10-01T00:17:04.647Z,11.38
2018-10-01T00:22:13.862Z,9.78
2018-10-01T00:27:17.928Z,8.53
2018-10-01T00:32:21.780Z,9.90
2018-10-01T00:37:25.875Z,8.63
2018-10-01T00:42:29.682Z,7.17
2018-10-01T00:47:33.734Z,8.57
2018-10-01T00:52:37.868Z,12.40
2018-10-01T00:57:41.959Z,12.60
2018-10-01T01:02:46.124Z,10.37
2018-10-01T01:07:49.931Z,8.27
2018-10-01T01:12:54.030Z,9.77
2018-10-01T01:17:58.120Z,15.10
2018-10-01T01:23:01.960Z,8.93
2018-10-01T01:28:06.090Z,10.17
2018-10-01T01:33:09.915Z,10.77
2018-10-01T01:38:13.751Z,11.83
2018-10-01T01:43:17.592Z,11.03
2018-10-01T01:48:21.690Z,9.43
2018-10-01T01:53:25.775Z,12.23
2018-10-01T01:58:29.683Z,12.60
2018-10-01T02:03:33.556Z,11.17
2018-10-01T02:08:37.999Z,10.40
2018-10-01T02:13:41.866Z,12.90
2018-10-01T02:18:45.988Z,14.73
2018-10-01T02:23:50.061Z,10.97
2018-10-01T02:28:54.214Z,10.83
2018-10-01T02:33:58.295Z,10.83
2018-10-01T02:39:02.126Z,11.90
2018-10-01T02:44:06.158Z,12.37
2018-10-01T02:49:10.351Z,11.03
2018-10-01T02:54:19.860Z,11.33
2018-10-01T02:59:23.743Z,12.13
2018-10-01T03:04:28.288Z,13.77
2018-10-01T03:09:32.386Z,12.57
2018-10-01T03:14:36.496Z,10.40
2018-10-01T03:19:40.375Z,11.07
2018-10-01T03:24:44.507Z,10.70
2018-10-01T03:29:48.606Z,10.33
2018-10-01T03:34:53.239Z,14.17
2018-10-01T03:39:57.889Z,10.00
2018-10-01T03:45:01.926Z,7.73
2018-10-01T03:50:06.004Z,8.23
2018-10-01T03:55:09.909Z,11.38
2018-10-01T04:00:14.009Z,12.53
2018-10-01T04:05:18.094Z,11.77
2018-10-01T04:10:22.010Z,10.68
2018-10-01T04:15:25.826Z,14.40
2018-10-01T04:20:29.895Z,12.20
2018-10-01T04:25:33.715Z,12.83
2018-10-01T04:30:37.557Z,9.30
2018-10-01T04:35:41.602Z,11.57
2018-10-01T04:40:45.685Z,10.73
2018-10-01T04:45:49.788Z,11.67
2018-10-01T04:50:53.587Z,11.90
2018-10-01T04:55:57.647Z,13.33
2018-10-01T05:01:01.511Z,13.40
2018-10-01T05:06:05.445Z,12.13
2018-10-01T05:11:09.480Z,11.30
2018-10-01T05:16:13.526Z,14.20
2018-10-01T05:21:17.571Z,15.43
2018-10-01T05:26:21.680Z,11.10
2018-10-01T05:31:25.722Z,12.97
2018-10-01T05:36:29.547Z,12.20
2018-10-01T05:41:33.585Z,16.60
2018-10-01T05:46:37.429Z,15.37
2018-10-01T05:51:41.391Z,10.50
2018-10-01T05:56:45.204Z,11.97
2018-10-01T06:01:49.267Z,10.77
2018-10-01T06:06:53.161Z,17.10
2018-10-01T06:11:57.278Z,18.47
2018-10-01T06:17:01.335Z,15.70
2018-10-01T06:22:05.498Z,15.90
2018-10-01T06:27:09.373Z,13.27
2018-10-01T06:32:13.205Z,15.70
2018-10-01T06:37:17.323Z,16.27
2018-10-01T06:42:21.448Z,11.60
2018-10-01T06:47:25.536Z,16.33
2018-10-01T06:52:29.356Z,8.73
2018-10-01T06:57:33.317Z,9.40
2018-10-01T07:02:38.116Z,8.87
2018-10-01T07:07:42.194Z,11.53
2018-10-01T07:12:46.011Z,10.50
2018-10-01T07:17:50.041Z,9.27
2018-10-01T07:22:53.948Z,9.17
2018-10-01T07:27:58.020Z,12.28
2018-10-01T07:33:01.812Z,10.30
2018-10-01T07:38:05.863Z,10.27
2018-10-01T07:43:09.925Z,9.70
2018-10-01T07:48:13.753Z,12.13
2018-10-01T07:53:17.844Z,6.43
2018-10-01T07:58:21.910Z,11.60
2018-10-01T08:03:25.943Z,8.40
2018-10-01T08:08:29.988Z,8.10
2018-10-01T08:13:33.769Z,7.83
2018-10-01T08:18:37.963Z,7.67
2018-10-01T08:23:41.827Z,5.93
2018-10-01T08:28:45.609Z,3.93
2018-10-01T08:33:49.741Z,6.30
2018-10-01T08:38:53.852Z,5.80
2018-10-01T08:43:57.689Z,5.53
2018-10-01T08:49:05.947Z,4.10
2018-10-01T08:54:14.598Z,4.17
2018-10-01T08:59:18.667Z,5.57
2018-10-01T09:04:22.811Z,5.23
2018-10-01T09:09:26.870Z,4.13
2018-10-01T09:14:30.950Z,3.83
2018-10-01T09:19:35.010Z,3.40
2018-10-01T09:24:39.130Z,4.93
2018-10-01T09:29:42.982Z,3.97
2018-10-01T09:34:47.049Z,4.90
2018-10-01T09:39:51.010Z,3.63
2018-10-01T09:44:55.080Z,2.93
2018-10-01T09:49:58.894Z,4.37
2018-10-01T09:55:02.779Z,9.40
2018-10-01T10:00:07.041Z,2.67
2018-10-01T10:05:10.869Z,3.87
2018-10-01T10:10:15.034Z,4.37
2018-10-01T10:15:18.786Z,5.03
2018-10-01T10:20:22.724Z,4.53
2018-10-01T10:25:26.518Z,4.57
2018-10-01T10:30:30.402Z,2.50
2018-10-01T10:35:34.259Z,3.37
2018-10-01T10:40:38.094Z,3.87
2018-10-01T10:45:41.902Z,3.17
2018-10-01T10:50:46.007Z,7.17
2018-10-01T10:55:49.841Z,4.10
2018-10-01T11:00:53.706Z,5.93
2018-10-01T11:05:57.777Z,3.93
2018-10-01T11:11:01.601Z,2.77
2018-10-01T11:16:06.009Z,3.47
2018-10-01T11:21:10.132Z,3.53
2018-10-01T11:26:13.918Z,4.67
2018-10-01T11:31:18.010Z,3.03
2018-10-01T11:36:22.174Z,4.57
2018-10-01T11:41:26.008Z,4.43
2018-10-01T11:46:29.832Z,5.83
2018-10-01T11:51:33.959Z,3.77
2018-10-01T11:56:38.038Z,4.30
2018-10-01T12:01:41.938Z,4.30
2018-10-01T12:06:45.996Z,2.73
2018-10-01T12:11:50.086Z,0.87
2018-10-01T12:16:54.151Z,4.53
2018-10-01T12:21:58.059Z,1.45
2018-10-01T12:27:02.111Z,4.17
2018-10-01T12:32:06.256Z,1.93
2018-10-01T12:37:10.065Z,3.02
2018-10-01T12:42:13.941Z,5.40
2018-10-01T12:47:17.753Z,2.27
2018-10-01T12:52:22.250Z,1.03
2018-10-01T12:57:26.305Z,1.10
2018-10-01T13:02:30.342Z,2.67
2018-10-01T13:07:34.382Z,2.97
2018-10-01T13:12:38.325Z,0.90
2018-10-01T13:17:42.277Z,3.20
2018-10-01T13:22:46.319Z,1.93
2018-10-01T13:27:50.376Z,1.03
2018-10-01T13:32:54.433Z,2.50
2018-10-01T13:37:58.519Z,3.00
2018-10-01T13:43:02.567Z,3.12
2018-10-01T13:48:06.693Z,3.72
2018-10-01T13:53:10.742Z,4.73
2018-10-01T13:58:14.684Z,6.13
2018-10-01T14:03:18.419Z,9.10
2018-10-01T14:08:22.535Z,5.20
2018-10-01T14:13:26.698Z,6.90
2018-10-01T14:18:30.451Z,5.83
2018-10-01T14:23:34.774Z,3.67
2018-10-01T14:28:38.610Z,3.77
2018-10-01T14:33:42.707Z,6.53
2018-10-01T14:38:46.539Z,7.50
2018-10-01T14:43:50.651Z,5.73
2018-10-01T14:48:54.469Z,7.43
2018-10-01T14:53:58.586Z,6.58
2018-10-01T14:59:02.395Z,7.28
2018-10-01T15:04:06.233Z,7.90
2018-10-01T15:09:11.621Z,8.10
2018-10-01T15:14:15.538Z,9.53
2018-10-01T15:19:19.367Z,7.90
2018-10-01T15:24:23.214Z,9.87
2018-10-01T15:29:27.329Z,11.40
2018-10-01T15:34:31.482Z,10.43
2018-10-01T15:39:35.356Z,11.00
2018-10-01T15:44:39.162Z,11.27
2018-10-01T15:49:43.003Z,9.53
2018-10-01T15:54:47.090Z,7.87
2018-10-01T15:59:51.187Z,11.33
2018-10-01T16:04:55.242Z,8.97
2018-10-01T16:09:59.285Z,5.60
2018-10-01T16:15:03.596Z,11.00
2018-10-01T16:20:07.458Z,6.53
2018-10-01T16:25:11.274Z,5.70
2018-10-01T16:30:15.091Z,7.93
2018-10-01T16:35:18.901Z,5.93
2018-10-01T16:40:23.172Z,6.83
2018-10-01T16:45:27.220Z,7.73
2018-10-01T16:50:31.265Z,4.40
2018-10-01T16:55:35.081Z,4.60
2018-10-01T17:00:39.188Z,3.17
2018-10-01T17:05:43.284Z,2.67
2018-10-01T17:10:47.143Z,4.80
2018-10-01T17:15:52.280Z,3.90
2018-10-01T17:20:56.090Z,5.90
2018-10-01T17:26:00.168Z,7.50
2018-10-01T17:31:04.286Z,4.57
2018-10-01T17:36:08.400Z,3.80
2018-10-01T17:41:12.496Z,5.23
2018-10-01T17:46:16.583Z,7.93
2018-10-01T17:51:20.786Z,5.50
2018-10-01T17:56:25.010Z,4.30
2018-10-01T18:01:28.877Z,6.70
2018-10-01T18:06:32.945Z,3.60
2018-10-01T18:11:37.254Z,5.20
2018-10-01T18:16:41.074Z,6.83
2018-10-01T18:21:45.202Z,6.70
2018-10-01T18:26:49.057Z,2.73
2018-10-01T18:31:53.799Z,15.68
2018-10-01T18:36:57.820Z,14.17
2018-10-01T18:42:01.993Z,14.13
2018-10-01T18:47:06.086Z,8.27
2018-10-01T18:52:10.129Z,9.53
2018-10-01T18:57:13.962Z,13.63
2018-10-01T19:02:17.815Z,19.07
2018-10-01T19:07:21.962Z,8.97
2018-10-01T19:12:25.905Z,19.87
2018-10-01T19:17:29.871Z,8.87
2018-10-01T19:22:33.733Z,6.80
2018-10-01T19:27:37.730Z,5.63
2018-10-01T19:32:41.579Z,7.23
2018-10-01T19:37:45.414Z,7.97
2018-10-01T19:42:49.267Z,7.47
2018-10-01T19:47:53.213Z,5.93
2018-10-01T19:52:57.382Z,7.17
2018-10-01T19:58:01.184Z,5.37
2018-10-01T20:03:05.077Z,9.20
2018-10-01T20:08:08.884Z,11.17
2018-10-01T20:13:13.007Z,6.60
2018-10-01T20:18:16.838Z,8.90
2018-10-01T20:23:20.702Z,8.20
2018-10-01T20:28:24.638Z,10.13
2018-10-01T20:33:28.627Z,6.10
2018-10-01T20:38:32.726Z,6.13
2018-10-01T20:43:36.602Z,8.60
2018-10-01T20:48:40.705Z,8.50
2018-10-01T20:53:44.811Z,8.33
2018-10-01T20:58:48.844Z,8.33
2018-10-01T21:05:17.102Z,10.63
2018-10-01T21:10:21.246Z,7.50
2018-10-01T21:15:25.322Z,9.63
2018-10-01T21:20:29.193Z,7.20
2018-10-01T21:25:33.050Z,13.67
2018-10-01T21:30:37.176Z,7.83
2018-10-01T21:35:41.214Z,11.20
2018-10-01T21:41:48.624Z,8.37
2018-10-01T21:46:53.593Z,7.70
2018-10-01T21:51:57.671Z,7.63
2018-10-01T21:57:01.738Z,9.48
2018-10-01T22:02:05.902Z,8.88
2018-10-01T22:07:09.995Z,10.30
2018-10-01T22:12:13.895Z,11.27
2018-10-01T22:17:17.705Z,9.70
2018-10-01T22:22:22.233Z,9.38
2018-10-01T22:27:26.049Z,12.33
2018-10-01T22:32:30.108Z,10.77
2018-10-01T22:37:33.901Z,9.53
2018-10-01T22:42:38.008Z,10.73
2018-10-01T22:47:41.825Z,13.03
2018-10-01T22:52:45.886Z,12.63
2018-10-01T22:57:49.708Z,9.70
2018-10-01T23:02:53.559Z,8.73
2018-10-01T23:07:57.628Z,10.17
2018-10-01T23:13:01.445Z,8.53
2018-10-01T23:18:05.552Z,7.80
2018-10-01T23:23:09.751Z,9.47
2018-10-01T23:28:13.565Z,11.47
2018-10-01T23:33:17.770Z,6.90
2018-10-01T23:38:21.707Z,7.57
2018-10-01T23:43:25.684Z,7.40
2018-10-01T23:48:29.740Z,6.17
2018-10-01T23:53:33.557Z,4.77
2018-10-01T23:58:37.913Z,6.23
